Time;durP1;ratioP1;P1;durP2;ratioP2;P2;SDS_P1;SDS_P2;PMS_P1;PMS_P2;Temp;Humidity;BMP_temperature;BMP_pressure;BME280_temperature;BME280_humidity;BME280_pressure;Samples;Min_cycle;Max_cycle;Signal;HPM_P1;HPM_P2
2021/05/19 00:01:41;;;;;;;0.93;0.80;;;22.20;52.20;;;;;;5111870;28;20051;-41
2021/05/19 00:04:09;;;;;;;1.00;0.80;;;22.20;52.20;;;;;;5113421;27;21146;-43
2021/05/19 00:06:37;;;;;;;1.35;1.10;;;22.20;52.80;;;;;;5113265;28;20104;-40
2021/05/19 00:09:10;;;;;;;1.17;0.80;;;22.20;52.20;;;;;;5111230;28;20097;-45
2021/05/19 00:11:38;;;;;;;1.27;0.98;;;22.20;52.20;;;;;;5113359;28;20130;-41
2021/05/19 00:14:08;;;;;;;0.85;0.73;;;22.20;52.20;;;;;;5132976;27;20086;-43
2021/05/19 00:16:35;;;;;;;1.52;0.90;;;22.20;52.20;;;;;;5112266;28;20063;-39
2021/05/19 00:19:03;;;;;;;0.98;0.82;;;22.20;52.20;;;;;;5113161;28;20040;-44
2021/05/19 00:21:31;;;;;;;1.17;0.90;;;22.20;52.20;;;;;;5099340;28;20054;-41
2021/05/19 00:23:58;;;;;;;1.00;0.80;;;22.20;52.20;;;;;;5112640;28;20124;-40
2021/05/19 00:26:25;;;;;;;1.30;0.90;;;22.20;52.20;;;;;;5112248;28;20050;-43
2021/05/19 00:28:54;;;;;;;1.00;0.85;;;22.20;52.80;;;;;;5112456;27;20471;-41
2021/05/19 00:31:24;;;;;;;1.08;0.80;;;22.20;52.20;;;;;;5113471;28;20096;-41
2021/05/19 00:33:51;;;;;;;1.05;0.80;;;22.20;52.80;;;;;;5112035;28;20071;-43
2021/05/19 00:36:18;;;;;;;1.10;0.88;;;22.20;52.20;;;;;;5112772;27;20048;-41
2021/05/19 00:38:45;;;;;;;1.13;0.95;;;22.20;52.20;;;;;;5112403;28;20461;-40
2021/05/19 00:41:13;;;;;;;1.00;0.80;;;22.20;52.20;;;;;;5111389;27;20608;-41
2021/05/19 00:43:41;;;;;;;0.90;0.80;;;22.20;52.20;;;;;;5112776;28;20039;-42
2021/05/19 00:46:09;;;;;;;1.10;0.80;;;22.20;52.80;;;;;;5110858;28;20493;-40
2021/05/19 00:48:37;;;;;;;0.90;0.70;;;22.20;52.20;;;;;;5111754;28;20491;-42
2021/05/19 00:51:05;;;;;;;1.05;0.68;;;22.20;52.20;;;;;;5112971;28;20457;-42
2021/05/19 00:53:33;;;;;;;0.88;0.65;;;22.20;52.20;;;;;;5115206;27;20075;-40
2021/05/19 00:56:00;;;;;;;1.10;0.73;;;22.20;52.30;;;;;;5113700;28;20507;-40
2021/05/19 00:58:28;;;;;;;1.08;0.88;;;22.20;52.20;;;;;;5115357;27;20406;-40
2021/05/19 01:00:56;;;;;;;1.30;0.90;;;22.20;52.20;;;;;;5113983;28;20047;-40
2021/05/19 01:03:23;;;;;;;0.80;0.70;;;22.20;52.20;;;;;;5124687;27;20043;-40
2021/05/19 01:05:54;;;;;;;1.20;0.90;;;22.20;52.20;;;;;;5122670;27;20441;-40
2021/05/19 01:11:10;;;;;;;1.05;0.82;;;22.20;52.30;;;;;;5124665;27;20051;-40
2021/05/19 01:13:41;;;;;;;0.95;0.70;;;22.20;52.20;;;;;;5122597;27;20052;-39
2021/05/19 01:16:09;;;;;;;1.35;1.02;;;22.20;52.30;;;;;;5114599;27;20067;-39
2021/05/19 01:18:37;;;;;;;0.93;0.73;;;22.20;52.20;;;;;;5113496;28;20109;-39
2021/05/19 01:21:04;;;;;;;1.55;0.80;;;22.20;52.30;;;;;;5102257;27;20046;-41
2021/05/19 01:23:32;;;;;;;1.00;0.82;;;22.20;52.30;;;;;;5131743;27;20368;-40
2021/05/19 01:26:02;;;;;;;0.90;0.52;;;22.20;52.20;;;;;;5120513;27;20077;-40
2021/05/19 01:28:29;;;;;;;1.02;0.60;;;22.20;52.30;;;;;;5126537;27;20044;-40
2021/05/19 01:30:56;;;;;;;1.00;0.80;;;22.20;52.20;;;;;;5116073;27;20445;-39
2021/05/19 01:33:23;;;;;;;0.70;0.70;;;22.20;52.20;;;;;;5116033;27;20043;-39
2021/05/19 01:35:50;;;;;;;1.15;0.80;;;22.20;52.20;;;;;;5114892;27;20048;-39
2021/05/19 01:38:18;;;;;;;1.00;0.90;;;22.20;52.20;;;;;;5130991;27;20052;-40
2021/05/19 01:40:45;;;;;;;1.17;0.90;;;22.20;52.30;;;;;;5114446;27;20039;-39
2021/05/19 01:43:12;;;;;;;1.40;0.90;;;22.20;52.20;;;;;;5114515;27;20048;-39
2021/05/19 01:45:39;;;;;;;1.27;0.98;;;22.20;52.30;;;;;;5130667;27;20093;-39
2021/05/19 01:48:12;;;;;;;1.27;0.82;;;22.20;52.30;;;;;;5113040;28;20123;-39
2021/05/19 01:50:42;;;;;;;1.30;0.80;;;22.20;52.20;;;;;;5111938;27;20099;-40
2021/05/19 01:53:12;;;;;;;0.57;0.50;;;22.20;52.20;;;;;;5113044;28;20081;-40
2021/05/19 01:55:39;;;;;;;1.15;0.80;;;22.20;52.80;;;;;;5112852;28;20068;-39
2021/05/19 01:58:06;;;;;;;1.10;0.63;;;22.20;52.30;;;;;;5114297;27;20051;-40
2021/05/19 02:00:35;;;;;;;0.88;0.80;;;22.20;52.30;;;;;;5127883;27;20491;-39
2021/05/19 02:03:05;;;;;;;0.80;0.60;;;22.20;52.30;;;;;;5114902;27;20483;-39
2021/05/19 02:05:34;;;;;;;1.10;0.85;;;22.20;52.30;;;;;;5113849;27;20055;-39
2021/05/19 02:08:06;;;;;;;1.15;0.80;;;22.20;52.30;;;;;;5127331;27;20069;-39
2021/05/19 02:10:35;;;;;;;1.02;0.70;;;22.20;52.30;;;;;;5117527;27;20075;-39
2021/05/19 02:13:05;;;;;;;0.63;0.55;;;22.20;52.30;;;;;;5122159;27;20464;-41
2021/05/19 02:15:34;;;;;;;1.02;0.70;;;22.20;52.30;;;;;;5113692;27;20082;-40
2021/05/19 02:18:01;;;;;;;0.70;0.55;;;22.20;52.20;;;;;;5124954;27;20122;-39
2021/05/19 02:20:29;;;;;;;1.55;1.08;;;22.20;52.20;;;;;;5120610;27;20039;-39
2021/05/19 02:22:57;;;;;;;1.17;0.75;;;22.20;52.30;;;;;;5114176;28;20063;-39
2021/05/19 02:25:24;;;;;;;1.02;0.73;;;22.20;52.30;;;;;;5113751;28;20609;-39
2021/05/19 02:27:52;;;;;;;0.80;0.70;;;22.20;52.30;;;;;;5129561;27;20069;-39
2021/05/19 02:30:21;;;;;;;1.00;0.60;;;22.20;52.30;;;;;;5114617;28;20039;-38
2021/05/19 02:32:50;;;;;;;1.17;0.75;;;22.20;52.30;;;;;;5115120;28;20048;-39
2021/05/19 02:35:18;;;;;;;1.35;0.70;;;22.20;52.30;;;;;;5118733;28;20096;-39
2021/05/19 02:37:45;;;;;;;1.10;0.80;;;22.20;52.30;;;;;;5124839;28;20494;-40
2021/05/19 02:40:15;;;;;;;1.20;0.95;;;22.10;52.10;;;;;;5115441;28;20070;-39
2021/05/19 02:42:44;;;;;;;1.10;0.70;;;22.10;52.20;;;;;;5127757;28;20040;-40
2021/05/19 02:45:13;;;;;;;0.80;0.60;;;22.10;52.20;;;;;;5114080;28;20066;-41
2021/05/19 02:47:40;;;;;;;1.08;0.73;;;22.20;52.30;;;;;;5131033;28;20055;-39
2021/05/19 02:50:08;;;;;;;0.88;0.65;;;22.20;52.30;;;;;;5130088;28;20134;-40
2021/05/19 02:52:35;;;;;;;0.75;0.70;;;22.20;52.30;;;;;;5095899;28;20051;-39
2021/05/19 02:55:03;;;;;;;0.80;0.70;;;22.20;52.30;;;;;;5131638;28;20082;-40
2021/05/19 02:57:30;;;;;;;0.90;0.80;;;22.20;52.30;;;;;;5112259;28;20051;-40
2021/05/19 02:59:57;;;;;;;0.88;0.80;;;22.20;52.30;;;;;;5111040;28;20040;-40
2021/05/19 03:02:24;;;;;;;1.00;0.82;;;22.20;52.30;;;;;;5113429;28;20051;-39
2021/05/19 03:04:51;;;;;;;0.93;0.70;;;22.10;52.20;;;;;;5129761;28;20092;-40
2021/05/19 03:07:18;;;;;;;0.73;0.60;;;22.10;52.20;;;;;;5113621;28;20043;-39
2021/05/19 03:09:45;;;;;;;0.90;0.70;;;22.10;52.20;;;;;;5126461;28;20548;-39
2021/05/19 03:12:12;;;;;;;1.02;0.73;;;22.20;52.30;;;;;;5114098;28;20510;-39
2021/05/19 03:14:39;;;;;;;0.90;0.63;;;22.10;52.20;;;;;;5111220;28;20457;-39
2021/05/19 03:17:06;;;;;;;1.10;0.80;;;22.20;52.30;;;;;;5114710;28;20496;-39
2021/05/19 03:19:33;;;;;;;1.15;0.80;;;22.10;52.20;;;;;;5127558;27;20047;-39
2021/05/19 03:22:01;;;;;;;1.02;0.70;;;22.10;52.20;;;;;;5124409;27;20047;-39
2021/05/19 03:24:28;;;;;;;1.00;0.63;;;22.20;52.30;;;;;;5117079;27;20453;-40
2021/05/19 03:26:55;;;;;;;0.93;0.60;;;22.20;52.30;;;;;;5117064;27;20048;-39
2021/05/19 03:29:22;;;;;;;1.10;0.60;;;22.20;52.30;;;;;;5098728;28;20040;-39
2021/05/19 03:31:49;;;;;;;0.77;0.73;;;22.20;52.30;;;;;;5117181;27;20043;-39
2021/05/19 03:34:17;;;;;;;0.90;0.70;;;22.20;52.30;;;;;;5116930;27;20043;-39
2021/05/19 03:36:44;;;;;;;0.80;0.70;;;22.10;52.20;;;;;;5116864;27;20071;-41
2021/05/19 03:39:12;;;;;;;1.27;0.80;;;22.20;52.30;;;;;;5116798;27;20047;-41
2021/05/19 03:41:40;;;;;;;1.05;0.60;;;22.10;52.20;;;;;;5116593;27;20431;-40
2021/05/19 03:44:08;;;;;;;1.02;0.60;;;22.20;52.30;;;;;;5115140;28;20035;-39
2021/05/19 03:46:35;;;;;;;1.33;0.80;;;22.10;52.20;;;;;;5115550;28;20054;-41
2021/05/19 03:49:03;;;;;;;0.73;0.40;;;22.10;52.20;;;;;;5116708;27;20043;-40
2021/05/19 03:51:31;;;;;;;0.93;0.60;;;22.20;52.30;;;;;;5116904;27;20457;-40
2021/05/19 03:53:58;;;;;;;1.00;0.65;;;22.20;52.30;;;;;;5134903;27;20047;-40
2021/05/19 03:56:25;;;;;;;1.30;0.90;;;22.10;52.20;;;;;;5114364;28;20048;-42
2021/05/19 03:58:53;;;;;;;0.70;0.60;;;22.20;52.30;;;;;;5116138;27;20101;-42
2021/05/19 04:01:20;;;;;;;0.50;0.40;;;22.10;52.20;;;;;;5116504;27;20160;-40
2021/05/19 04:03:50;;;;;;;0.93;0.80;;;22.10;52.20;;;;;;5116353;27;20127;-39
2021/05/19 04:06:24;;;;;;;0.70;0.50;;;22.10;52.20;;;;;;5129778;27;20054;-41
2021/05/19 04:08:57;;;;;;;0.65;0.55;;;22.20;52.30;;;;;;5117689;27;20047;-41
2021/05/19 04:11:24;;;;;;;0.77;0.50;;;22.10;52.20;;;;;;5116157;27;20047;-39
2021/05/19 04:13:51;;;;;;;0.70;0.63;;;22.20;52.30;;;;;;5115926;27;20067;-41
2021/05/19 04:16:18;;;;;;;0.75;0.60;;;22.20;52.30;;;;;;5128784;27;20047;-41
2021/05/19 04:18:45;;;;;;;0.80;0.80;;;22.20;52.30;;;;;;5121044;27;20048;-43
2021/05/19 04:21:12;;;;;;;0.90;0.80;;;22.10;52.20;;;;;;5115620;27;20075;-42
2021/05/19 04:23:40;;;;;;;0.77;0.60;;;22.10;52.20;;;;;;5114529;28;20043;-39
2021/05/19 04:26:08;;;;;;;0.80;0.50;;;22.10;52.20;;;;;;5117216;27;20384;-42
2021/05/19 04:28:36;;;;;;;0.80;0.70;;;22.20;52.30;;;;;;5115199;27;20399;-40
2021/05/19 04:31:03;;;;;;;0.80;0.60;;;22.20;52.90;;;;;;5115883;27;20055;-39
2021/05/19 04:33:31;;;;;;;1.20;0.80;;;22.20;52.30;;;;;;5115876;27;20044;-40
2021/05/19 04:35:58;;;;;;;0.52;0.40;;;22.20;52.30;;;;;;5115880;27;20043;-38
2021/05/19 04:38:26;;;;;;;0.90;0.68;;;22.20;52.30;;;;;;5115656;27;20075;-42
2021/05/19 04:40:53;;;;;;;0.82;0.75;;;22.10;52.20;;;;;;5115512;27;20040;-39
2021/05/19 04:43:20;;;;;;;0.70;0.60;;;22.10;52.20;;;;;;5115672;27;20104;-41
2021/05/19 04:45:47;;;;;;;0.73;0.57;;;22.10;52.20;;;;;;5114103;28;20051;-41
2021/05/19 04:48:14;;;;;;;0.77;0.60;;;22.10;52.20;;;;;;5113944;28;20044;-39
2021/05/19 04:50:41;;;;;;;0.40;0.40;;;22.10;52.20;;;;;;5115457;27;20491;-43
2021/05/19 04:53:10;;;;;;;0.63;0.63;;;22.20;52.30;;;;;;5096521;28;20521;-44
2021/05/19 04:55:38;;;;;;;0.95;0.63;;;22.10;52.20;;;;;;5097128;27;20090;-44
2021/05/19 04:58:06;;;;;;;0.80;0.60;;;22.20;52.30;;;;;;5115012;28;20063;-40
2021/05/19 05:00:36;;;;;;;0.68;0.60;;;22.20;52.30;;;;;;5096236;28;20467;-41
2021/05/19 05:03:05;;;;;;;0.70;0.60;;;22.10;52.20;;;;;;5114655;27;20043;-42
2021/05/19 05:05:33;;;;;;;0.85;0.70;;;22.10;52.20;;;;;;5115083;27;20048;-42
2021/05/19 05:08:00;;;;;;;0.68;0.52;;;22.20;52.30;;;;;;5116475;27;20048;-42
2021/05/19 05:10:27;;;;;;;1.02;0.80;;;22.10;52.20;;;;;;5116389;27;20047;-40
2021/05/19 05:12:54;;;;;;;0.70;0.60;;;22.10;52.20;;;;;;5115372;27;20047;-41
2021/05/19 05:15:22;;;;;;;0.80;0.50;;;22.10;52.20;;;;;;5115071;27;20083;-40
2021/05/19 05:17:50;;;;;;;0.95;0.68;;;22.10;52.20;;;;;;5114806;27;20062;-42
2021/05/19 05:20:17;;;;;;;1.08;0.80;;;22.20;52.30;;;;;;5115063;27;20130;-42
2021/05/19 05:22:45;;;;;;;0.57;0.57;;;22.20;52.30;;;;;;5123897;27;20043;-43
2021/05/19 05:25:13;;;;;;;0.70;0.50;;;22.20;52.30;;;;;;5103723;28;20051;-42
2021/05/19 05:27:41;;;;;;;1.45;0.75;;;22.20;52.30;;;;;;5123625;27;20047;-39
2021/05/19 05:30:10;;;;;;;1.02;0.70;;;22.10;52.20;;;;;;5123575;27;20047;-43
2021/05/19 05:32:37;;;;;;;0.75;0.60;;;22.20;52.30;;;;;;5113188;28;20053;-39
2021/05/19 05:35:05;;;;;;;0.55;0.47;;;22.20;52.30;;;;;;5113334;28;20047;-40
2021/05/19 05:37:32;;;;;;;0.63;0.60;;;22.10;52.20;;;;;;5113086;28;20047;-40
2021/05/19 05:40:00;;;;;;;0.77;0.60;;;22.20;52.30;;;;;;5112533;28;20128;-40
2021/05/19 05:42:32;;;;;;;1.02;0.47;;;22.20;52.30;;;;;;5113356;28;20067;-40
2021/05/19 05:45:01;;;;;;;0.93;0.70;;;22.20;52.30;;;;;;5116186;27;20402;-41
2021/05/19 05:47:28;;;;;;;0.85;0.55;;;22.20;52.80;;;;;;5127318;27;20126;-40
2021/05/19 05:49:58;;;;;;;0.95;0.60;;;22.20;52.20;;;;;;5096387;28;20039;-39
2021/05/19 05:52:25;;;;;;;0.70;0.55;;;22.20;52.20;;;;;;5113330;28;20459;-44
2021/05/19 05:54:52;;;;;;;0.73;0.68;;;22.20;52.20;;;;;;5113012;28;20092;-40
2021/05/19 05:57:20;;;;;;;1.27;0.55;;;22.20;52.20;;;;;;5096625;27;20039;-40
2021/05/19 05:59:48;;;;;;;0.60;0.60;;;22.20;52.20;;;;;;5096296;28;20117;-40
2021/05/19 06:02:15;;;;;;;0.90;0.60;;;22.20;52.20;;;;;;5114013;28;20135;-41
2021/05/19 06:04:43;;;;;;;0.70;0.60;;;22.20;52.30;;;;;;5113141;28;20564;-40
2021/05/19 06:07:11;;;;;;;0.75;0.60;;;22.20;52.20;;;;;;5113850;27;20050;-40
2021/05/19 06:09:38;;;;;;;0.70;0.70;;;22.20;52.20;;;;;;5114058;27;20039;-40
2021/05/19 06:12:05;;;;;;;0.70;0.60;;;22.20;52.20;;;;;;5112811;27;20047;-39
2021/05/19 06:14:33;;;;;;;1.13;0.75;;;22.20;52.20;;;;;;5113314;27;20126;-40
2021/05/19 06:17:02;;;;;;;0.73;0.50;;;22.20;52.20;;;;;;5113808;28;20063;-39
2021/05/19 06:19:30;;;;;;;0.80;0.70;;;22.20;52.20;;;;;;5128127;27;20445;-40
2021/05/19 06:21:57;;;;;;;2.22;0.70;;;22.20;52.20;;;;;;5113411;28;20047;-40
2021/05/19 06:24:24;;;;;;;0.80;0.70;;;22.20;52.20;;;;;;5113980;28;20399;-39
2021/05/19 06:26:51;;;;;;;0.60;0.50;;;22.20;52.20;;;;;;5114086;28;20410;-39
2021/05/19 06:29:18;;;;;;;0.60;0.50;;;22.20;52.20;;;;;;5113682;28;20083;-41
2021/05/19 06:31:46;;;;;;;0.70;0.60;;;22.20;52.20;;;;;;5096012;28;20059;-40
2021/05/19 06:34:13;;;;;;;0.90;0.63;;;22.20;52.20;;;;;;5094246;28;20039;-39
2021/05/19 06:36:47;;;;;;;0.65;0.63;;;22.20;52.20;;;;;;5088369;28;20055;-40
2021/05/19 06:39:14;;;;;;;0.60;0.40;;;22.20;52.20;;;;;;5101592;28;20352;-40
2021/05/19 06:41:46;;;;;;;0.52;0.50;;;22.20;52.20;;;;;;5118428;28;20383;-40
2021/05/19 06:44:15;;;;;;;0.80;0.50;;;22.20;52.20;;;;;;5111668;28;20050;-40
2021/05/19 06:46:43;;;;;;;1.52;0.60;;;22.20;52.20;;;;;;5129348;28;20043;-40
2021/05/19 06:49:12;;;;;;;0.68;0.57;;;22.20;52.20;;;;;;5107620;28;20040;-41
2021/05/19 06:51:43;;;;;;;0.98;0.50;;;22.20;52.20;;;;;;5112896;28;20048;-40
2021/05/19 06:54:11;;;;;;;0.68;0.57;;;22.20;52.20;;;;;;5119094;27;20045;-42
2021/05/19 06:56:45;;;;;;;0.82;0.70;;;22.20;52.20;;;;;;5117492;27;20062;-40
2021/05/19 06:59:17;;;;;;;0.63;0.50;;;22.20;52.20;;;;;;5116314;27;20051;-40
2021/05/19 07:01:46;;;;;;;0.70;0.60;;;22.20;52.20;;;;;;5117302;27;20050;-42
2021/05/19 07:04:14;;;;;;;0.50;0.40;;;22.20;52.20;;;;;;5117848;27;20067;-40
2021/05/19 07:06:41;;;;;;;0.60;0.50;;;22.20;52.20;;;;;;5117435;27;20039;-40
2021/05/19 07:09:09;;;;;;;0.60;0.60;;;22.20;52.20;;;;;;5117389;27;20097;-40
2021/05/19 07:11:36;;;;;;;0.70;0.60;;;22.20;52.20;;;;;;5117416;27;20130;-40
2021/05/19 07:14:05;;;;;;;0.60;0.60;;;22.20;52.20;;;;;;5114852;28;20138;-39
2021/05/19 07:16:35;;;;;;;0.40;0.40;;;22.20;52.20;;;;;;5133572;27;20182;-42
2021/05/19 07:19:02;;;;;;;0.70;0.57;;;22.20;52.20;;;;;;5096773;28;20052;-40
2021/05/19 07:21:29;;;;;;;0.70;0.60;;;22.20;52.20;;;;;;5116958;27;20075;-41
2021/05/19 07:23:57;;;;;;;1.08;0.68;;;22.20;52.20;;;;;;5131054;27;20487;-42
2021/05/19 07:26:25;;;;;;;0.60;0.50;;;22.20;52.20;;;;;;5117341;27;20051;-42
2021/05/19 07:28:52;;;;;;;0.77;0.60;;;22.20;52.20;;;;;;5128895;27;20043;-44
2021/05/19 07:31:20;;;;;;;0.65;0.57;;;22.20;52.20;;;;;;5121408;27;20130;-40
2021/05/19 07:33:48;;;;;;;0.75;0.40;;;22.20;52.20;;;;;;5128274;27;20047;-41
2021/05/19 07:36:16;;;;;;;0.68;0.50;;;22.20;52.20;;;;;;5123200;27;20445;-41
2021/05/19 07:38:43;;;;;;;0.55;0.50;;;22.20;52.20;;;;;;5116948;27;20051;-40
2021/05/19 07:41:10;;;;;;;0.60;0.50;;;22.20;52.20;;;;;;5116495;27;20052;-40
2021/05/19 07:43:38;;;;;;;0.50;0.38;;;22.20;52.20;;;;;;5123272;27;20099;-42
2021/05/19 07:46:05;;;;;;;0.85;0.60;;;22.30;52.30;;;;;;5107098;28;20137;-46
2021/05/19 07:48:49;;;;;;;0.70;0.60;;;22.20;52.20;;;;;;5115274;28;20112;-47
2021/05/19 07:51:34;;;;;;;0.88;0.60;;;22.20;52.20;;;;;;5116772;27;20471;-43
2021/05/19 07:54:26;;;;;;;0.85;0.60;;;22.20;52.20;;;;;;5115724;27;20411;-40
2021/05/19 07:57:19;;;;;;;0.50;0.40;;;22.20;52.20;;;;;;5117746;27;20115;-41
2021/05/19 08:00:11;;;;;;;1.92;0.60;;;22.20;52.20;;;;;;5133008;27;20087;-43
2021/05/19 08:02:55;;;;;;;0.80;0.50;;;22.20;52.30;;;;;;5102398;28;20050;-42
2021/05/19 08:05:40;;;;;;;0.60;0.45;;;22.20;52.30;;;;;;5098706;27;20061;-41
2021/05/19 08:08:26;;;;;;;0.77;0.60;;;22.20;52.30;;;;;;5116632;27;20120;-42
2021/05/19 08:11:10;;;;;;;0.95;0.70;;;22.20;52.30;;;;;;5114725;28;20111;-43
2021/05/19 08:13:54;;;;;;;0.50;0.45;;;22.20;52.30;;;;;;5117872;27;20033;-43
2021/05/19 08:16:39;;;;;;;0.68;0.55;;;22.20;52.30;;;;;;5132877;27;20066;-41
2021/05/19 08:19:24;;;;;;;0.68;0.50;;;22.30;52.30;;;;;;5126463;27;20035;-44
2021/05/19 08:21:51;;;;;;;0.98;0.60;;;22.20;52.30;;;;;;5115815;27;20509;-40
2021/05/19 08:24:18;;;;;;;0.70;0.50;;;22.20;52.30;;;;;;5096598;28;20055;-41
2021/05/19 08:26:46;;;;;;;0.40;0.40;;;22.30;52.30;;;;;;5118599;27;20379;-43
2021/05/19 08:29:13;;;;;;;0.77;0.50;;;22.20;52.30;;;;;;5128621;27;20395;-42
2021/05/19 08:31:40;;;;;;;0.75;0.50;;;22.30;52.30;;;;;;5116218;27;20073;-44
2021/05/19 08:34:12;;;;;;;0.50;0.40;;;22.30;52.30;;;;;;5113904;27;20051;-42
2021/05/19 08:36:41;;;;;;;0.75;0.60;;;22.30;52.30;;;;;;5114237;28;20502;-40
2021/05/19 08:39:09;;;;;;;0.85;0.60;;;22.30;52.30;;;;;;5115702;27;20054;-42
2021/05/19 08:41:37;;;;;;;0.80;0.60;;;22.30;52.40;;;;;;5095970;28;20044;-40
2021/05/19 08:44:06;;;;;;;0.85;0.60;;;22.30;52.30;;;;;;5115751;27;20485;-43
2021/05/19 08:46:33;;;;;;;0.40;0.32;;;22.30;52.30;;;;;;5115469;27;20406;-40
2021/05/19 08:49:03;;;;;;;0.55;0.45;;;22.30;52.30;;;;;;5112838;28;20040;-40
2021/05/19 08:51:31;;;;;;;0.50;0.50;;;22.30;52.30;;;;;;5114158;28;20061;-40
2021/05/19 08:53:58;;;;;;;0.60;0.60;;;22.30;52.30;;;;;;5115579;27;20074;-40
2021/05/19 08:56:26;;;;;;;0.70;0.57;;;22.30;52.30;;;;;;5130872;27;20502;-42
2021/05/19 08:58:53;;;;;;;0.57;0.57;;;22.30;52.20;;;;;;5115552;27;20045;-40
2021/05/19 09:01:22;;;;;;;1.20;0.52;;;22.30;52.20;;;;;;5127517;27;20043;-42
2021/05/19 09:04:03;;;;;;;0.60;0.50;;;22.30;52.30;;;;;;5119653;27;20039;-42
2021/05/19 09:06:34;;;;;;;;;;;22.30;52.20;;;;;;5114146;28;20051;-40
2021/05/19 09:09:19;;;;;;;0.75;0.50;;;22.30;52.20;;;;;;5114691;27;19920;-39
2021/05/19 09:12:08;;;;;;;0.63;0.50;;;22.30;52.30;;;;;;5130622;27;20047;-39
2021/05/19 09:15:04;;;;;;;0.70;0.50;;;22.30;52.20;;;;;;5115699;27;20051;-40
2021/05/19 09:17:38;;;;;;;0.80;0.60;;;22.30;52.20;;;;;;5097500;27;20069;-42
2021/05/19 09:20:12;;;;;;;0.75;0.55;;;22.30;52.30;;;;;;5097507;27;20071;-39
2021/05/19 09:23:00;;;;;;;0.70;0.60;;;22.30;52.20;;;;;;5095845;28;20051;-39
2021/05/19 09:25:32;;;;;;;0.70;0.60;;;22.30;52.20;;;;;;5106555;28;20040;-39
2021/05/19 09:28:03;;;;;;;0.68;0.55;;;22.30;52.20;;;;;;5113796;28;20104;-40
2021/05/19 09:30:47;;;;;;;0.68;0.50;;;22.30;52.20;;;;;;5130019;27;20078;-39
2021/05/19 09:33:17;;;;;;;;;;;22.40;52.30;;;;;;5113541;28;20047;-39
2021/05/19 09:36:05;;;;;;;0.60;0.60;;;22.30;52.10;;;;;;5115104;27;19966;-39
2021/05/19 09:38:32;;;;;;;0.70;0.40;;;22.30;52.10;;;;;;5114341;27;20051;-40
2021/05/19 09:41:29;;;;;;;0.65;0.55;;;22.40;52.20;;;;;;5114236;27;20479;-39
2021/05/19 09:43:59;;;;;;;0.55;0.40;;;22.40;52.30;;;;;;5114767;27;20065;-39
2021/05/19 09:49:22;;;;;;;1.15;0.60;;;22.30;52.10;;;;;;5115406;27;20044;-39
2021/05/19 09:52:18;;;;;;;0.55;0.45;;;22.30;52.10;;;;;;5115624;27;20445;-40
2021/05/19 09:54:45;;;;;;;0.80;0.43;;;22.30;52.10;;;;;;5114297;27;20043;-39
2021/05/19 09:57:17;;;;;;;0.45;0.40;;;22.30;52.10;;;;;;5122302;27;20522;-39
2021/05/19 09:59:49;;;;;;;0.77;0.55;;;22.30;52.10;;;;;;5122295;27;20047;-40
2021/05/19 10:02:16;;;;;;;0.65;0.60;;;22.40;52.10;;;;;;5122373;27;20046;-40
2021/05/19 10:04:49;;;;;;;0.50;0.40;;;22.40;52.10;;;;;;5129479;27;20047;-40
2021/05/19 10:07:17;;;;;;;0.52;0.50;;;22.40;52.10;;;;;;5122563;27;20407;-39
2021/05/19 10:09:46;;;;;;;1.08;0.55;;;22.40;52.10;;;;;;5094692;28;20499;-39
2021/05/19 10:12:14;;;;;;;0.47;0.45;;;22.40;52.10;;;;;;5117665;27;20039;-39
2021/05/19 10:14:42;;;;;;;0.55;0.43;;;22.30;52.00;;;;;;5117977;27;20125;-39
2021/05/19 10:17:14;;;;;;;0.50;0.50;;;22.30;52.00;;;;;;5095906;28;20051;-39
2021/05/19 10:19:46;;;;;;;0.85;0.40;;;22.40;52.10;;;;;;5117659;27;20039;-39
2021/05/19 10:22:16;;;;;;;1.02;0.60;;;22.40;52.10;;;;;;5127136;27;20047;-39
2021/05/19 10:24:58;;;;;;;0.70;0.57;;;22.40;52.10;;;;;;5113981;27;21682;-39
2021/05/19 10:27:26;;;;;;;0.80;0.50;;;22.40;52.00;;;;;;5115583;28;20046;-39
2021/05/19 10:29:57;;;;;;;0.88;0.52;;;22.40;52.00;;;;;;5129246;27;20043;-39
2021/05/19 10:32:28;;;;;;;0.40;0.40;;;22.40;52.00;;;;;;5128232;28;20043;-41
2021/05/19 10:35:02;;;;;;;0.52;0.30;;;22.40;52.00;;;;;;5113609;28;20044;-40
2021/05/19 10:37:30;;;;;;;0.80;0.52;;;22.40;51.90;;;;;;5113635;28;20075;-39
2021/05/19 10:40:23;;;;;;;0.63;0.40;;;22.40;52.60;;;;;;5114679;28;20044;-40
2021/05/19 10:42:56;;;;;;;0.40;0.30;;;22.40;51.90;;;;;;5110136;28;20047;-39
2021/05/19 10:45:23;;;;;;;0.70;0.43;;;22.40;51.90;;;;;;5126960;28;20042;-40
2021/05/19 10:47:51;;;;;;;0.70;0.45;;;22.40;51.90;;;;;;5114641;28;20039;-39
2021/05/19 10:58:59;;;;;;;0.50;0.50;;;22.40;51.90;;;;;;5112245;28;20063;-41
2021/05/19 11:01:39;;;;;;;0.30;0.30;;;22.40;51.90;;;;;;5103981;28;20043;-39
2021/05/19 11:04:17;;;;;;;0.57;0.40;;;22.40;51.90;;;;;;5129114;28;20119;-39
2021/05/19 11:06:57;;;;;;;0.50;0.50;;;22.40;51.90;;;;;;5112141;28;20521;-39
2021/05/19 11:09:29;;;;;;;0.80;0.38;;;22.40;51.90;;;;;;5118538;28;20044;-40
2021/05/19 11:12:23;;;;;;;0.70;0.50;;;22.40;51.90;;;;;;5124764;28;20047;-45
2021/05/19 11:15:00;;;;;;;0.40;0.40;;;22.40;51.90;;;;;;5113905;28;20074;-42
2021/05/19 11:17:43;;;;;;;0.65;0.47;;;22.40;51.90;;;;;;5113510;28;20047;-42
2021/05/19 11:20:12;;;;;;;0.77;0.47;;;22.40;51.90;;;;;;5112811;28;20067;-43
2021/05/19 11:22:39;;;;;;;0.57;0.43;;;22.40;51.90;;;;;;5112985;28;20054;-40
2021/05/19 11:25:07;;;;;;;0.57;0.47;;;22.40;51.90;;;;;;5109653;28;20050;-44
2021/05/19 11:27:36;;;;;;;0.82;0.50;;;22.40;51.90;;;;;;5113124;28;20052;-40
2021/05/19 11:30:07;;;;;;;0.32;0.30;;;22.40;51.90;;;;;;5114180;28;20380;-41
2021/05/19 11:32:35;;;;;;;0.70;0.43;;;22.40;51.90;;;;;;5128882;27;20051;-39
2021/05/19 11:35:20;;;;;;;0.57;0.40;;;22.40;51.90;;;;;;5114170;28;20169;-41
2021/05/19 11:38:05;;;;;;;0.68;0.50;;;22.40;51.90;;;;;;5114221;28;20491;-41
2021/05/19 11:40:44;;;;;;;0.77;0.57;;;22.40;51.90;;;;;;5116424;27;20130;-39
2021/05/19 11:43:16;;;;;;;0.57;0.40;;;22.40;51.90;;;;;;5117058;27;20089;-42
2021/05/19 11:45:46;;;;;;;0.40;0.30;;;22.40;51.90;;;;;;5115309;28;20052;-40
2021/05/19 11:48:26;;;;;;;0.75;0.50;;;22.40;51.90;;;;;;5115643;28;20437;-40
2021/05/19 11:51:21;;;;;;;0.60;0.40;;;22.40;51.90;;;;;;5115064;28;20082;-40
2021/05/19 11:53:56;;;;;;;0.50;0.50;;;22.40;52.00;;;;;;5115275;28;20499;-40
2021/05/19 11:56:23;;;;;;;0.68;0.50;;;22.40;52.00;;;;;;5114459;28;20043;-39
2021/05/19 11:58:50;;;;;;;0.40;0.30;;;22.40;51.90;;;;;;5132941;27;20043;-41
2021/05/19 12:01:18;;;;;;;0.82;0.50;;;22.40;51.90;;;;;;5131881;27;20050;-40
2021/05/19 12:03:47;;;;;;;0.40;0.40;;;22.40;52.00;;;;;;5133063;27;20047;-40
2021/05/19 12:06:21;;;;;;;;;;;22.40;52.00;;;;;;5116745;27;20051;-41
2021/05/19 12:08:48;;;;;;;0.50;0.43;;;22.40;52.00;;;;;;5131289;27;19919;-41
2021/05/19 12:11:18;;;;;;;0.77;0.50;;;22.30;51.90;;;;;;5120076;27;20044;-40
2021/05/19 12:13:54;;;;;;;0.63;0.43;;;22.30;51.90;;;;;;5120751;27;20054;-39
2021/05/19 12:16:35;;;;;;;0.65;0.40;;;22.30;51.90;;;;;;5115680;27;20073;-39
2021/05/19 12:19:07;;;;;;;0.70;0.43;;;22.30;52.00;;;;;;5116325;27;20048;-39
2021/05/19 12:21:38;;;;;;;0.40;0.40;;;22.30;52.00;;;;;;5128748;27;20054;-39
2021/05/19 12:24:07;;;;;;;0.57;0.47;;;22.30;52.00;;;;;;5129125;27;20051;-40
2021/05/19 12:26:36;;;;;;;0.68;0.47;;;22.30;52.00;;;;;;5115955;27;20059;-40
2021/05/19 12:29:29;;;;;;;0.60;0.40;;;22.40;52.10;;;;;;5115680;27;20048;-39
2021/05/19 12:32:17;;;;;;;0.82;0.45;;;22.30;52.10;;;;;;5115806;27;20047;-40
2021/05/19 12:35:07;;;;;;;0.50;0.40;;;22.30;52.10;;;;;;5113604;28;20047;-39
2021/05/19 12:37:54;;;;;;;0.55;0.40;;;22.30;52.10;;;;;;5116734;27;20047;-39
2021/05/19 12:40:25;;;;;;;0.40;0.40;;;22.30;52.10;;;;;;5080536;27;20483;-40
2021/05/19 12:42:56;;;;;;;0.73;0.55;;;22.30;52.10;;;;;;5114517;28;20085;-41
2021/05/19 12:45:44;;;;;;;0.68;0.50;;;22.30;52.10;;;;;;5114493;28;20046;-39
2021/05/19 12:48:15;;;;;;;0.60;0.52;;;22.30;52.10;;;;;;5099667;27;20100;-39
2021/05/19 12:50:51;;;;;;;0.28;0.25;;;22.30;52.10;;;;;;5113905;28;20040;-40
2021/05/19 12:53:29;;;;;;;0.55;0.40;;;22.30;52.10;;;;;;5114413;28;20069;-39
2021/05/19 12:56:01;;;;;;;0.30;0.30;;;22.30;52.10;;;;;;5116472;27;20047;-40
2021/05/19 12:58:29;;;;;;;0.47;0.40;;;22.40;52.20;;;;;;5131655;27;20074;-40
2021/05/19 13:01:01;;;;;;;0.52;0.40;;;22.30;52.10;;;;;;5113931;28;20050;-40
2021/05/19 13:03:36;;;;;;;0.55;0.43;;;22.30;52.10;;;;;;5098018;27;20483;-40
2021/05/19 13:06:05;;;;;;;0.40;0.40;;;22.30;52.10;;;;;;5098307;27;20053;-40
2021/05/19 13:08:34;;;;;;;0.35;0.35;;;22.40;52.20;;;;;;5097813;27;20408;-40
2021/05/19 13:11:05;;;;;;;0.50;0.40;;;22.40;52.20;;;;;;5113799;28;20040;-39
2021/05/19 13:13:39;;;;;;;0.75;0.35;;;22.30;52.10;;;;;;5113824;27;20069;-39
2021/05/19 13:16:10;;;;;;;0.63;0.30;;;22.30;52.10;;;;;;5113355;28;20530;-39
2021/05/19 13:19:03;;;;;;;0.60;0.32;;;22.30;52.10;;;;;;5132915;27;20062;-39
2021/05/19 13:21:48;;;;;;;0.52;0.40;;;22.30;52.10;;;;;;5099309;27;20047;-40